Terminal Aerodrome Forecast
Issued by NWS

Home | Current Version | Previous Version | Text Only | Print | Product List | Glossary On
Versions: 1 2 3 4 5 6 7 8 9 10 11 12 13 14 15 16
000
FTUS44 KCRP 201700
TAFALI
TAF
KALI 201733Z 2018/2118 16014G20KT P6SM SCT050
     FM202000 14018G26KT P6SM SCT060
     FM210200 14012KT P6SM FEW025
     FM211000 15007KT P6SM BKN015
     FM211500 17016G23KT P6SM SCT035=

USA.gov is the U.S. government's official web portal to all federal, state and local government web resources and services.